createdAt,value
2023-05-19T00:00:53.450Z,19.8558
2023-05-19T00:01:55.244Z,19.8755
2023-05-19T00:02:57.081Z,19.8896
2023-05-19T00:03:58.616Z,19.8796
2023-05-19T00:05:00.394Z,19.8859
2023-05-19T00:06:02.161Z,19.9050
2023-05-19T00:07:03.814Z,19.9005
2023-05-19T00:08:05.533Z,19.8693
2023-05-19T00:09:07.275Z,19.8905
2023-05-19T00:10:09.004Z,19.8970
2023-05-19T00:11:10.729Z,19.8929
2023-05-19T00:12:12.420Z,19.8991
2023-05-19T00:13:14.181Z,19.9135
2023-05-19T00:14:15.871Z,19.9190
2023-05-19T00:15:17.618Z,19.9188
2023-05-19T00:16:19.429Z,19.8909
2023-05-19T00:17:21.048Z,19.8989
2023-05-19T00:18:22.861Z,19.9256
2023-05-19T00:19:25.026Z,19.9287
2023-05-19T00:20:26.239Z,19.9116
2023-05-19T00:21:27.974Z,19.9239
2023-05-19T00:22:29.685Z,19.9190
2023-05-19T00:23:31.417Z,19.9250
2023-05-19T00:24:33.152Z,19.8849
2023-05-19T00:25:34.873Z,19.8901
2023-05-19T00:26:36.583Z,19.8878
2023-05-19T00:27:38.349Z,19.9133
2023-05-19T00:28:40.093Z,19.9170
2023-05-19T00:29:41.780Z,19.9044
2023-05-19T00:30:43.518Z,19.9106
2023-05-19T00:31:45.292Z,19.8942
2023-05-19T00:32:46.970Z,19.8753
2023-05-19T00:33:48.705Z,19.8933
2023-05-19T00:34:50.413Z,19.8952
2023-05-19T00:35:52.143Z,19.8929
2023-05-19T00:36:53.849Z,19.9159
2023-05-19T00:37:55.613Z,19.9182
2023-05-19T00:38:57.320Z,19.9050
2023-05-19T00:39:59.043Z,19.9266
2023-05-19T00:41:00.770Z,19.9313
2023-05-19T00:42:02.475Z,19.9367
2023-05-19T00:43:04.204Z,19.9231
2023-05-19T00:44:05.964Z,19.9110
2023-05-19T00:45:07.684Z,19.8952
2023-05-19T00:46:09.412Z,19.8905
2023-05-19T00:47:11.142Z,19.9092
2023-05-19T00:48:12.853Z,19.9235
2023-05-19T00:49:14.570Z,19.9272
2023-05-19T00:50:16.312Z,19.9139
2023-05-19T00:51:18.033Z,19.8999
2023-05-19T00:52:19.740Z,19.9126
2023-05-19T00:53:21.480Z,19.8818
2023-05-19T00:54:23.200Z,19.8720
2023-05-19T00:55:24.930Z,19.8718
2023-05-19T00:56:26.663Z,19.8806
2023-05-19T00:57:28.370Z,19.9003
2023-05-19T00:58:30.119Z,19.8960
2023-05-19T00:59:31.851Z,19.8664
2023-05-19T01:00:33.870Z,19.8477
2023-05-19T01:01:35.381Z,19.8800
2023-05-19T01:02:37.060Z,19.8964
2023-05-19T01:03:38.793Z,19.8944
2023-05-19T01:04:40.470Z,19.8962
2023-05-19T01:05:42.200Z,19.8862
2023-05-19T01:06:43.917Z,19.8892
2023-05-19T01:07:45.650Z,19.8710
2023-05-19T01:08:47.361Z,19.8594
2023-05-19T01:09:49.101Z,19.8985
2023-05-19T01:10:50.825Z,19.8761
2023-05-19T01:11:52.545Z,19.8872
2023-05-19T01:12:54.259Z,19.8995
2023-05-19T01:13:56.015Z,19.9126
2023-05-19T01:14:57.746Z,19.9057
2023-05-19T01:15:59.471Z,19.9018
2023-05-19T01:17:01.189Z,19.9028
2023-05-19T01:18:02.952Z,19.8938
2023-05-19T01:19:04.647Z,19.9014
2023-05-19T01:20:06.427Z,19.9186
2023-05-19T01:21:08.097Z,19.8946
2023-05-19T01:22:09.798Z,19.8931
2023-05-19T01:23:11.528Z,19.9059
2023-05-19T01:24:13.274Z,19.9202
2023-05-19T01:25:15.016Z,19.8962
2023-05-19T01:26:16.724Z,19.9001
2023-05-19T01:27:18.430Z,19.9053
2023-05-19T01:28:20.168Z,19.8915
2023-05-19T01:29:21.873Z,19.9063
2023-05-19T01:30:23.657Z,19.8923
2023-05-19T01:31:25.358Z,19.9020
2023-05-19T01:32:27.135Z,19.9102
2023-05-19T01:33:28.788Z,19.8974
2023-05-19T01:34:30.512Z,19.8687
2023-05-19T01:35:32.226Z,19.8761
2023-05-19T01:36:33.963Z,19.8599
2023-05-19T01:37:35.668Z,19.8691
2023-05-19T01:38:37.423Z,19.8679
2023-05-19T01:39:39.111Z,19.8599
2023-05-19T01:40:40.880Z,19.8878
2023-05-19T01:41:42.602Z,19.8884
2023-05-19T01:42:44.296Z,19.9149
2023-05-19T01:43:46.049Z,19.9026
2023-05-19T01:44:47.767Z,19.9186
2023-05-19T01:45:49.525Z,19.9163
2023-05-19T01:46:51.198Z,19.9227
2023-05-19T01:47:52.970Z,19.9020
2023-05-19T01:48:54.677Z,19.8977
2023-05-19T01:49:56.384Z,19.9157
2023-05-19T01:50:58.145Z,19.9055
2023-05-19T01:51:59.830Z,19.8831
2023-05-19T01:53:01.564Z,19.8859
2023-05-19T01:54:03.317Z,19.8991
2023-05-19T01:55:05.026Z,19.8712
2023-05-19T01:56:06.897Z,19.8486
2023-05-19T01:57:08.490Z,19.8558
2023-05-19T01:58:10.240Z,19.8568
2023-05-19T01:59:11.924Z,19.8864
2023-05-19T02:00:13.671Z,19.8849
2023-05-19T02:01:15.410Z,19.8574
2023-05-19T02:02:17.121Z,19.8884
2023-05-19T02:03:18.820Z,19.8903
2023-05-19T02:04:20.590Z,19.9030
2023-05-19T02:05:22.292Z,19.9182
2023-05-19T02:06:24.048Z,19.8954
2023-05-19T02:07:25.733Z,19.8845
2023-05-19T02:08:27.474Z,19.8991
2023-05-19T02:09:29.189Z,19.8862
2023-05-19T02:10:31.096Z,19.8623
2023-05-19T02:11:32.671Z,19.8730
2023-05-19T02:12:34.350Z,19.8514
2023-05-19T02:13:36.107Z,19.8712
2023-05-19T02:14:37.798Z,19.8781
2023-05-19T02:15:39.587Z,19.8925
2023-05-19T02:16:41.262Z,19.8564
2023-05-19T02:17:42.989Z,19.8418
2023-05-19T02:18:44.710Z,19.8613
2023-05-19T02:19:46.425Z,19.8790
2023-05-19T02:20:48.161Z,19.8516
2023-05-19T02:21:49.899Z,19.8746
2023-05-19T02:22:51.592Z,19.8749
2023-05-19T02:23:53.334Z,19.8849
2023-05-19T02:24:55.034Z,19.8788
2023-05-19T02:25:56.766Z,19.8590
2023-05-19T02:26:58.502Z,19.8625
2023-05-19T02:28:00.213Z,19.8479
2023-05-19T02:29:01.975Z,19.8239
2023-05-19T02:30:03.663Z,19.8673
2023-05-19T02:31:05.405Z,19.8853
2023-05-19T02:32:07.185Z,19.9178
2023-05-19T02:33:08.900Z,19.9147
2023-05-19T02:34:10.564Z,19.9090
2023-05-19T02:35:12.314Z,19.8921
2023-05-19T02:36:14.020Z,19.9044
2023-05-19T02:37:15.782Z,19.8794
2023-05-19T02:38:17.483Z,19.8771
2023-05-19T02:39:19.203Z,19.9040
2023-05-19T02:40:20.930Z,19.8896
2023-05-19T02:41:22.655Z,19.8549
2023-05-19T02:42:24.403Z,19.8960
2023-05-19T02:43:26.102Z,19.8831
2023-05-19T02:44:27.810Z,19.8874
2023-05-19T02:45:29.535Z,19.8882
2023-05-19T02:46:31.324Z,19.8841
2023-05-19T02:47:34.717Z,19.9090
2023-05-19T02:48:34.707Z,19.8935
2023-05-19T02:49:36.487Z,19.8687
2023-05-19T02:50:38.174Z,19.8693
2023-05-19T02:51:39.907Z,19.8660
2023-05-19T02:52:41.610Z,19.8689
2023-05-19T02:53:43.338Z,19.8786
2023-05-19T02:54:45.092Z,19.8806
2023-05-19T02:55:46.785Z,19.8954
2023-05-19T02:56:48.506Z,19.8859
2023-05-19T02:57:50.252Z,19.8683
2023-05-19T02:58:51.958Z,19.8697
2023-05-19T02:59:53.680Z,19.8892
2023-05-19T03:00:55.430Z,19.8888
2023-05-19T03:01:57.188Z,19.8644
2023-05-19T03:02:58.905Z,19.8344
2023-05-19T03:04:00.729Z,19.8531
2023-05-19T03:05:02.319Z,19.8590
2023-05-19T03:06:04.020Z,19.8726
2023-05-19T03:07:05.748Z,19.8603
2023-05-19T03:08:07.495Z,19.8395
2023-05-19T03:09:09.191Z,19.8701
2023-05-19T03:10:10.912Z,19.8440
2023-05-19T03:11:12.652Z,19.8603
2023-05-19T03:12:14.359Z,19.8590
2023-05-19T03:13:16.111Z,19.8607
2023-05-19T03:14:17.821Z,19.8449
2023-05-19T03:15:19.522Z,19.8428
2023-05-19T03:16:21.331Z,19.8362
2023-05-19T03:17:23.062Z,19.8321
2023-05-19T03:18:24.838Z,19.8781
2023-05-19T03:19:26.662Z,19.8640
2023-05-19T03:20:28.145Z,19.8901
2023-05-19T03:21:29.872Z,19.8835
2023-05-19T03:22:31.622Z,19.8948
2023-05-19T03:23:33.345Z,19.9026
2023-05-19T03:24:35.041Z,19.9053
2023-05-19T03:25:36.795Z,19.9104
2023-05-19T03:26:38.496Z,19.9112
2023-05-19T03:27:40.244Z,19.8907
2023-05-19T03:28:41.972Z,19.8749
2023-05-19T03:29:43.688Z,19.8804
2023-05-19T03:30:45.405Z,19.8901
2023-05-19T03:31:47.153Z,19.8907
2023-05-19T03:32:48.985Z,19.9026
2023-05-19T03:33:50.598Z,19.8977
2023-05-19T03:34:52.318Z,19.8913
2023-05-19T03:35:54.032Z,19.8966
2023-05-19T03:36:55.781Z,19.9126
2023-05-19T03:37:57.473Z,19.9270
2023-05-19T03:38:59.196Z,19.9336
2023-05-19T03:40:00.945Z,19.9202
2023-05-19T03:41:02.673Z,19.8909
2023-05-19T03:42:04.399Z,19.8859
2023-05-19T03:43:06.121Z,19.9001
2023-05-19T03:44:07.855Z,19.8981
2023-05-19T03:45:09.561Z,19.9011
2023-05-19T03:46:11.356Z,19.9050
2023-05-19T03:47:13.032Z,19.9268
2023-05-19T03:48:14.749Z,19.9223
2023-05-19T03:49:16.494Z,19.9098
2023-05-19T03:50:18.207Z,19.8952
2023-05-19T03:51:19.915Z,19.9180
2023-05-19T03:52:21.631Z,19.9186
2023-05-19T03:53:23.490Z,19.9223
2023-05-19T03:54:25.217Z,19.9428
2023-05-19T03:55:26.913Z,19.9447
2023-05-19T03:56:28.670Z,19.9554
2023-05-19T03:57:30.380Z,19.9402
2023-05-19T03:58:32.077Z,19.9287
2023-05-19T03:59:33.831Z,19.9192
2023-05-19T04:00:35.773Z,19.8944
2023-05-19T04:01:37.296Z,19.8855
2023-05-19T04:02:39.098Z,19.8736
2023-05-19T04:03:40.809Z,19.8816
2023-05-19T04:04:42.512Z,19.8862
2023-05-19T04:05:44.216Z,19.9028
2023-05-19T04:06:45.930Z,19.8931
2023-05-19T04:07:47.626Z,19.9042
2023-05-19T04:08:49.357Z,19.9079
2023-05-19T04:09:51.088Z,19.8954
2023-05-19T04:10:52.833Z,19.8779
2023-05-19T04:11:54.569Z,19.9011
2023-05-19T04:12:56.264Z,19.8903
2023-05-19T04:13:58.014Z,19.8763
2023-05-19T04:14:59.758Z,19.8944
2023-05-19T04:16:01.481Z,19.8979
2023-05-19T04:17:03.198Z,19.8777
2023-05-19T04:18:04.944Z,19.8827
2023-05-19T04:19:06.719Z,19.8950
2023-05-19T04:20:08.371Z,19.8827
2023-05-19T04:21:10.113Z,19.8862
2023-05-19T04:22:11.810Z,19.8547
2023-05-19T04:23:13.548Z,19.8835
2023-05-19T04:24:15.263Z,19.8866
2023-05-19T04:25:17.058Z,19.8919
2023-05-19T04:26:18.719Z,19.8958
2023-05-19T04:27:20.467Z,19.8968
2023-05-19T04:28:22.184Z,19.8664
2023-05-19T04:29:23.917Z,19.8558
2023-05-19T04:30:25.634Z,19.8683
2023-05-19T04:31:27.353Z,19.8681
2023-05-19T04:32:29.123Z,19.8527
2023-05-19T04:33:30.822Z,19.8484
2023-05-19T04:34:32.559Z,19.8644
2023-05-19T04:35:34.292Z,19.8890
2023-05-19T04:36:35.973Z,19.8876
2023-05-19T04:37:37.694Z,19.8757
2023-05-19T04:38:39.427Z,19.8531
2023-05-19T04:39:41.180Z,19.8625
2023-05-19T04:40:42.911Z,19.8802
2023-05-19T04:41:44.623Z,19.8833
2023-05-19T04:42:46.327Z,19.8502
2023-05-19T04:43:48.080Z,19.8321
2023-05-19T04:44:49.782Z,19.8311
2023-05-19T04:45:51.553Z,19.8615
2023-05-19T04:46:53.306Z,19.8765
2023-05-19T04:47:55.009Z,19.8746
2023-05-19T04:48:56.725Z,19.8763
2023-05-19T04:49:58.411Z,19.8759
2023-05-19T04:51:00.154Z,19.8896
2023-05-19T04:52:01.868Z,19.9059
2023-05-19T04:53:03.622Z,19.8974
2023-05-19T04:54:05.338Z,19.9100
2023-05-19T04:55:07.049Z,19.8919
2023-05-19T04:56:08.783Z,19.8882
2023-05-19T04:57:10.520Z,19.8818
2023-05-19T04:58:12.253Z,19.8962
2023-05-19T04:59:13.972Z,19.9122
2023-05-19T05:00:15.699Z,19.8827
2023-05-19T05:01:17.444Z,19.8720
2023-05-19T05:02:19.224Z,19.8767
2023-05-19T05:03:20.972Z,19.8942
2023-05-19T05:04:22.657Z,19.8917
2023-05-19T05:05:24.337Z,19.9104
2023-05-19T05:06:26.037Z,19.9092
2023-05-19T05:07:28.548Z,19.9229
2023-05-19T05:08:29.483Z,19.8911
2023-05-19T05:09:31.224Z,19.8923
2023-05-19T05:10:33.108Z,19.8956
2023-05-19T05:11:34.682Z,19.9135
2023-05-19T05:12:36.410Z,19.9330
2023-05-19T05:13:38.130Z,19.9472
2023-05-19T05:14:39.828Z,19.9490
2023-05-19T05:15:41.555Z,19.9396
2023-05-19T05:16:43.491Z,19.9453
2023-05-19T05:17:45.056Z,19.9435
2023-05-19T05:18:46.770Z,19.9455
2023-05-19T05:19:48.487Z,19.9607
2023-05-19T05:20:50.214Z,19.9747
2023-05-19T05:21:52.328Z,19.9817
2023-05-19T05:22:53.646Z,19.9765
2023-05-19T05:23:55.373Z,19.9636
2023-05-19T05:24:57.113Z,19.9603
2023-05-19T05:25:58.841Z,19.9478
2023-05-19T05:27:00.602Z,19.9654
2023-05-19T05:28:02.270Z,19.9780
2023-05-19T05:29:03.998Z,19.9860
2023-05-19T05:30:05.714Z,19.9753
2023-05-19T05:31:07.518Z,19.9642
2023-05-19T05:32:09.256Z,19.9825
2023-05-19T05:33:10.955Z,19.9946
2023-05-19T05:34:12.619Z,19.9866
2023-05-19T05:35:14.350Z,19.9934
2023-05-19T05:36:16.096Z,20.0061
2023-05-19T05:37:17.835Z,19.9893
2023-05-19T05:38:19.547Z,19.9895
2023-05-19T05:39:21.266Z,19.9813
2023-05-19T05:40:22.978Z,19.9599
2023-05-19T05:41:24.725Z,19.9422
2023-05-19T05:42:28.932Z,19.9369
2023-05-19T05:43:28.172Z,19.9589
2023-05-19T05:44:29.894Z,19.9808
2023-05-19T05:45:31.913Z,19.9866
2023-05-19T05:46:33.478Z,19.9897
2023-05-19T05:47:35.096Z,19.9852
2023-05-19T05:48:36.793Z,19.9973
2023-05-19T05:49:38.536Z,19.9905
2023-05-19T05:50:40.240Z,19.9967
2023-05-19T05:51:46.417Z,19.9930
2023-05-19T05:52:43.706Z,19.9628
2023-05-19T05:53:45.441Z,19.9593
2023-05-19T05:54:47.144Z,19.9599
2023-05-19T05:55:48.867Z,19.9650
2023-05-19T05:56:50.600Z,19.9375
2023-05-19T05:57:52.350Z,19.9560
2023-05-19T05:58:54.070Z,19.9698
2023-05-19T05:59:55.789Z,19.9698
2023-05-19T06:00:57.500Z,19.9693
2023-05-19T06:01:59.228Z,19.9636
2023-05-19T06:03:01.134Z,19.9706
2023-05-19T06:04:02.706Z,19.9683
2023-05-19T06:05:04.461Z,19.9574
2023-05-19T06:06:06.148Z,19.9439
2023-05-19T06:07:07.889Z,19.9248
2023-05-19T06:08:09.630Z,19.9371
2023-05-19T06:09:11.303Z,19.9340
2023-05-19T06:10:13.051Z,19.9400
2023-05-19T06:11:14.803Z,19.9293
2023-05-19T06:12:16.515Z,19.9334
2023-05-19T06:13:18.261Z,19.9205
2023-05-19T06:14:19.969Z,19.9157
2023-05-19T06:15:21.670Z,19.9246
2023-05-19T06:16:23.444Z,19.9560
2023-05-19T06:17:25.257Z,19.9313
2023-05-19T06:18:26.903Z,19.9239
2023-05-19T06:19:28.707Z,19.9237
2023-05-19T06:20:30.474Z,19.8966
2023-05-19T06:21:32.021Z,19.8995
2023-05-19T06:22:33.769Z,19.8933
2023-05-19T06:23:35.505Z,19.9085
2023-05-19T06:24:39.356Z,19.9202
2023-05-19T06:25:38.948Z,19.9209
2023-05-19T06:26:40.671Z,19.9139
2023-05-19T06:27:42.382Z,19.9576
2023-05-19T06:28:44.111Z,19.9498
2023-05-19T06:29:45.827Z,19.9003
2023-05-19T06:30:47.573Z,19.9014
2023-05-19T06:31:49.398Z,19.9161
2023-05-19T06:32:51.111Z,19.9153
2023-05-19T06:33:52.761Z,19.9011
2023-05-19T06:34:54.485Z,19.9063
2023-05-19T06:35:56.189Z,19.9406
2023-05-19T06:36:57.939Z,19.9474
2023-05-19T06:37:59.671Z,19.9527
2023-05-19T06:39:02.677Z,19.9646
2023-05-19T06:40:03.103Z,19.9299
2023-05-19T06:41:04.832Z,19.9278
2023-05-19T06:42:06.587Z,19.9291
2023-05-19T06:43:08.304Z,19.9225
2023-05-19T06:44:10.069Z,19.9509
2023-05-19T06:45:11.764Z,19.9654
2023-05-19T06:46:13.556Z,19.9455
2023-05-19T06:47:15.243Z,19.9492
2023-05-19T06:48:17.015Z,19.9589
2023-05-19T06:49:18.650Z,19.9375
2023-05-19T06:50:20.404Z,19.9500
2023-05-19T06:51:22.124Z,19.9523
2023-05-19T06:52:23.883Z,19.9531
2023-05-19T06:53:25.565Z,19.9433
2023-05-19T06:54:27.305Z,19.9217
2023-05-19T06:55:29.027Z,19.9137
2023-05-19T06:56:30.780Z,19.9258
2023-05-19T06:57:32.492Z,19.9281
2023-05-19T06:58:34.201Z,19.9322
2023-05-19T06:59:35.936Z,19.9231
2023-05-19T07:00:37.706Z,19.9287
2023-05-19T07:01:39.413Z,19.9188
2023-05-19T07:02:41.187Z,19.9213
2023-05-19T07:03:42.895Z,19.9472
2023-05-19T07:04:44.605Z,19.9410
2023-05-19T07:05:47.167Z,19.9104
2023-05-19T07:06:48.028Z,19.9299
2023-05-19T07:07:49.767Z,19.9533
2023-05-19T07:08:51.485Z,19.9613
2023-05-19T07:09:53.236Z,19.9412
2023-05-19T07:10:54.957Z,19.9603
2023-05-19T07:11:56.685Z,19.9827
2023-05-19T07:12:58.398Z,19.9646
2023-05-19T07:14:00.173Z,19.9416
2023-05-19T07:15:02.037Z,19.9250
2023-05-19T07:16:03.625Z,19.9223
2023-05-19T07:17:05.325Z,19.9431
2023-05-19T07:18:07.075Z,19.9490
2023-05-19T07:19:08.822Z,19.9778
2023-05-19T07:20:10.540Z,19.9630
2023-05-19T07:21:12.215Z,19.9558
2023-05-19T07:22:13.950Z,19.9406
2023-05-19T07:23:17.393Z,19.9439
2023-05-19T07:24:17.429Z,19.9624
2023-05-19T07:25:19.146Z,19.9484
2023-05-19T07:26:20.894Z,19.9408
2023-05-19T07:27:22.618Z,19.9443
2023-05-19T07:28:24.316Z,19.9640
2023-05-19T07:29:26.070Z,19.9737
2023-05-19T07:30:27.811Z,19.9798
2023-05-19T07:31:29.574Z,20.0059
2023-05-19T07:32:31.298Z,19.9999
2023-05-19T07:33:32.965Z,20.0020
2023-05-19T07:34:34.689Z,20.0073
2023-05-19T07:35:36.441Z,20.0121
2023-05-19T07:36:38.158Z,20.0032
2023-05-19T07:37:39.892Z,20.0191
2023-05-19T07:38:41.663Z,20.0123
2023-05-19T07:39:43.326Z,20.0147
2023-05-19T07:40:45.059Z,20.0110
2023-05-19T07:41:46.783Z,20.0145
2023-05-19T07:42:48.505Z,20.0145
2023-05-19T07:43:50.262Z,20.0170
2023-05-19T07:44:51.970Z,20.0178
2023-05-19T07:45:53.781Z,20.0080
2023-05-19T07:46:55.444Z,20.0004
2023-05-19T07:47:57.220Z,20.0125
2023-05-19T07:48:58.926Z,19.9923
2023-05-19T07:50:00.612Z,19.9852
2023-05-19T07:51:02.387Z,19.9806
2023-05-19T07:52:04.069Z,20.0014
2023-05-19T07:53:05.806Z,19.9839
2023-05-19T07:54:07.529Z,19.9872
2023-05-19T07:55:09.265Z,20.0123
2023-05-19T07:56:11.115Z,20.0137
2023-05-19T07:57:12.790Z,20.0073
2023-05-19T07:58:14.504Z,20.0055
2023-05-19T07:59:16.265Z,20.0057
2023-05-19T08:00:17.981Z,20.0139
2023-05-19T08:01:19.846Z,20.0308
2023-05-19T08:02:21.458Z,20.0334
2023-05-19T08:03:23.295Z,20.0499
2023-05-19T08:04:24.897Z,20.0478
2023-05-19T08:05:26.643Z,20.0269
2023-05-19T08:06:28.363Z,20.0030
2023-05-19T08:07:30.048Z,20.0049
2023-05-19T08:08:31.797Z,20.0215
2023-05-19T08:09:33.531Z,20.0244
2023-05-19T08:10:35.400Z,20.0176
2023-05-19T08:11:36.982Z,19.9880
2023-05-19T08:12:38.694Z,20.0104
2023-05-19T08:13:40.406Z,20.0045
2023-05-19T08:14:42.131Z,20.0090
2023-05-19T08:15:43.892Z,19.9827
2023-05-19T08:16:45.607Z,19.9911
2023-05-19T08:17:47.367Z,20.0016
2023-05-19T08:18:49.098Z,20.0293
2023-05-19T08:19:50.790Z,20.0308
2023-05-19T08:20:52.517Z,20.0484
2023-05-19T08:21:54.265Z,20.0468
2023-05-19T08:22:55.978Z,20.0494
2023-05-19T08:23:57.696Z,20.0396
2023-05-19T08:24:59.429Z,20.0499
2023-05-19T08:26:01.156Z,20.0605
2023-05-19T08:27:02.896Z,20.0503
2023-05-19T08:28:04.603Z,20.0266
2023-05-19T08:29:06.318Z,20.0260
2023-05-19T08:30:08.074Z,20.0162
2023-05-19T08:31:09.845Z,20.0053
2023-05-19T08:32:13.185Z,20.0361
2023-05-19T08:33:13.255Z,20.0096
2023-05-19T08:34:14.971Z,20.0020
2023-05-19T08:35:16.671Z,19.9963
2023-05-19T08:36:18.398Z,20.0041
2023-05-19T08:37:20.157Z,19.9993
2023-05-19T08:38:21.873Z,19.9930
2023-05-19T08:39:23.581Z,20.0236
2023-05-19T08:40:25.322Z,20.0176
2023-05-19T08:41:27.024Z,20.0340
2023-05-19T08:42:28.802Z,20.0435
2023-05-19T08:43:30.497Z,20.0515
2023-05-19T08:44:32.221Z,20.0433
2023-05-19T08:45:34.124Z,20.0540
2023-05-19T08:46:35.833Z,20.0700
2023-05-19T08:47:37.433Z,20.0556
2023-05-19T08:48:39.094Z,20.0698
2023-05-19T08:49:40.842Z,20.0683
2023-05-19T08:50:42.559Z,20.0429
2023-05-19T08:51:44.302Z,20.0497
2023-05-19T08:52:49.539Z,20.0472
2023-05-19T08:53:47.742Z,20.0659
2023-05-19T08:54:49.461Z,20.0587
2023-05-19T08:55:51.192Z,20.0607
2023-05-19T08:56:52.888Z,20.0353
2023-05-19T08:57:54.642Z,20.0178
2023-05-19T08:58:56.364Z,20.0562
2023-05-19T08:59:58.076Z,20.0642
2023-05-19T09:00:59.876Z,20.0665
2023-05-19T09:02:01.513Z,20.0501
2023-05-19T09:04:05.023Z,20.0655
2023-05-19T09:05:06.715Z,20.0490
2023-05-19T09:06:08.557Z,20.0449
2023-05-19T09:07:10.135Z,20.0499
2023-05-19T09:08:11.870Z,20.0667
2023-05-19T09:09:13.620Z,20.0805
2023-05-19T09:10:15.335Z,20.0770
2023-05-19T09:11:17.039Z,20.0745
2023-05-19T09:12:18.781Z,20.0435
2023-05-19T09:13:20.519Z,20.0505
2023-05-19T09:14:22.234Z,20.0823
2023-05-19T09:15:23.945Z,20.0883
2023-05-19T09:16:27.811Z,20.1059
2023-05-19T09:17:27.412Z,20.1014
2023-05-19T09:18:29.189Z,20.1012
2023-05-19T09:19:30.989Z,20.1076
2023-05-19T09:20:32.586Z,20.1094
2023-05-19T09:21:34.302Z,20.1150
2023-05-19T09:22:36.048Z,20.0916
2023-05-19T09:23:37.785Z,20.1043
2023-05-19T09:24:39.481Z,20.1090
2023-05-19T09:25:41.230Z,20.0909
2023-05-19T09:26:42.974Z,20.1024
2023-05-19T09:27:44.691Z,20.0934
2023-05-19T09:28:46.402Z,20.1090
2023-05-19T09:29:48.119Z,20.1195
2023-05-19T09:30:49.849Z,20.1263
2023-05-19T09:31:51.788Z,20.1226
2023-05-19T09:32:53.380Z,20.1191
2023-05-19T09:33:55.091Z,20.1199
2023-05-19T09:34:56.753Z,20.1144
2023-05-19T09:35:58.501Z,20.1174
2023-05-19T09:37:00.230Z,20.1273
2023-05-19T09:38:01.986Z,20.1310
2023-05-19T09:39:03.701Z,20.1267
2023-05-19T09:40:05.399Z,20.0936
2023-05-19T09:41:07.188Z,20.1037
2023-05-19T09:42:08.853Z,20.0985
2023-05-19T09:43:10.584Z,20.1068
2023-05-19T09:44:12.323Z,20.0825
2023-05-19T09:45:14.069Z,20.0983
2023-05-19T09:46:15.838Z,20.0901
2023-05-19T09:47:17.505Z,20.0946
2023-05-19T09:48:19.217Z,20.1045
2023-05-19T09:49:20.992Z,20.0901
2023-05-19T09:50:22.691Z,20.1043
2023-05-19T09:51:24.422Z,20.1111
2023-05-19T09:52:26.154Z,20.1172
2023-05-19T09:53:27.865Z,20.1174
2023-05-19T09:54:29.722Z,20.1240
2023-05-19T09:55:31.449Z,20.1230
2023-05-19T09:56:33.061Z,20.1026
2023-05-19T09:57:34.801Z,20.1269
2023-05-19T09:58:36.771Z,20.1215
2023-05-19T09:59:38.264Z,20.1271
2023-05-19T10:00:39.986Z,20.1363
2023-05-19T10:01:41.722Z,20.1427
2023-05-19T10:02:43.435Z,20.1306
2023-05-19T10:03:45.164Z,20.1100
2023-05-19T10:04:47.327Z,20.0965
2023-05-19T10:05:48.643Z,20.1176
2023-05-19T10:06:50.329Z,20.1271
2023-05-19T10:07:52.060Z,20.1443
2023-05-19T10:08:53.789Z,20.1472
2023-05-19T10:09:56.604Z,20.1485
2023-05-19T10:10:57.264Z,20.1392
2023-05-19T10:11:59.004Z,20.1505
2023-05-19T10:13:00.694Z,20.1316
2023-05-19T10:14:02.424Z,20.1441
2023-05-19T10:15:04.183Z,20.1462
2023-05-19T10:16:05.953Z,20.1530
2023-05-19T10:17:07.765Z,20.1639
2023-05-19T10:18:09.389Z,20.1413
2023-05-19T10:19:11.100Z,20.1495
2023-05-19T10:20:12.844Z,20.1230
2023-05-19T10:21:14.506Z,20.1491
2023-05-19T10:22:16.230Z,20.1620
2023-05-19T10:23:17.989Z,20.1647
2023-05-19T10:24:19.702Z,20.1651
2023-05-19T10:25:21.454Z,20.1454
2023-05-19T10:26:23.135Z,20.1480
2023-05-19T10:27:24.874Z,20.1185
2023-05-19T10:28:26.642Z,20.0905
2023-05-19T10:29:28.383Z,20.1131
2023-05-19T10:30:30.092Z,20.1164
2023-05-19T10:31:31.860Z,20.1384
2023-05-19T10:32:33.622Z,20.1526
2023-05-19T10:33:35.257Z,20.1509
2023-05-19T10:34:36.968Z,20.1511
2023-05-19T10:35:38.917Z,20.1503
2023-05-19T10:36:40.406Z,20.1464
2023-05-19T10:37:42.156Z,20.1125
2023-05-19T10:38:43.877Z,20.1142
2023-05-19T10:39:45.596Z,20.1343
2023-05-19T10:40:47.334Z,20.1246
2023-05-19T10:41:49.038Z,20.1462
2023-05-19T10:42:50.778Z,20.1657
2023-05-19T10:43:52.501Z,20.1729
2023-05-19T10:44:54.229Z,20.1770
2023-05-19T10:45:55.936Z,20.1561
2023-05-19T10:46:57.714Z,20.1674
2023-05-19T10:47:59.495Z,20.1764
2023-05-19T10:49:01.137Z,20.1941
2023-05-19T10:50:02.872Z,20.1998
2023-05-19T10:51:04.607Z,20.1998
2023-05-19T10:52:06.303Z,20.1860
2023-05-19T10:53:08.036Z,20.1863
2023-05-19T10:54:10.992Z,20.1747
2023-05-19T10:55:11.504Z,20.1458
2023-05-19T10:56:13.235Z,20.1606
2023-05-19T10:57:14.919Z,20.1706
2023-05-19T10:58:16.656Z,20.1897
2023-05-19T10:59:18.376Z,20.1877
2023-05-19T11:00:20.123Z,20.1815
2023-05-19T11:01:21.866Z,20.1932
2023-05-19T11:02:23.640Z,20.1856
2023-05-19T11:03:25.262Z,20.1871
2023-05-19T11:04:27.163Z,20.2037
2023-05-19T11:05:28.729Z,20.2082
2023-05-19T11:06:30.486Z,20.1963
2023-05-19T11:07:32.203Z,20.1719
2023-05-19T11:08:33.926Z,20.1908
2023-05-19T11:09:40.275Z,20.1982
2023-05-19T11:12:38.933Z,21.4982
2023-05-19T11:13:40.575Z,20.6242
2023-05-19T11:14:42.276Z,20.2959
2023-05-19T11:15:44.081Z,20.1978
2023-05-19T11:16:46.723Z,20.1624
2023-05-19T11:17:47.526Z,20.1667
2023-05-19T11:18:49.253Z,20.1852
2023-05-19T11:19:50.928Z,20.1768
2023-05-19T11:20:52.757Z,20.1897
2023-05-19T11:21:54.401Z,20.1879
2023-05-19T11:22:56.192Z,20.1984
2023-05-19T11:23:57.963Z,20.1922
2023-05-19T11:24:59.565Z,20.2037
2023-05-19T11:26:01.293Z,20.1838
2023-05-19T11:27:03.133Z,20.1895
2023-05-19T11:28:04.779Z,20.1887
2023-05-19T11:29:06.474Z,20.1863
2023-05-19T11:30:08.254Z,20.2015
2023-05-19T11:31:09.953Z,20.1971
2023-05-19T11:32:11.755Z,20.1941
2023-05-19T11:33:13.483Z,20.1961
2023-05-19T11:34:15.112Z,20.1680
2023-05-19T11:35:16.842Z,20.1737
2023-05-19T11:36:18.612Z,20.1916
2023-05-19T11:37:20.302Z,20.1988
2023-05-19T11:38:22.130Z,20.2119
2023-05-19T11:39:23.782Z,20.2082
2023-05-19T11:40:25.520Z,20.1965
2023-05-19T11:41:27.243Z,20.2078
2023-05-19T11:42:28.966Z,20.2195
2023-05-19T11:43:30.712Z,20.2214
2023-05-19T11:44:32.522Z,20.2222
2023-05-19T11:45:34.416Z,20.2230
2023-05-19T11:46:35.969Z,20.2125
2023-05-19T11:47:50.852Z,20.2236
2023-05-19T11:48:39.368Z,20.2355
2023-05-19T11:49:41.053Z,20.2507
2023-05-19T11:50:42.856Z,20.2187
2023-05-19T11:51:44.500Z,20.2222
2023-05-19T11:52:46.252Z,20.2294
2023-05-19T11:53:47.980Z,20.2549
2023-05-19T11:54:49.716Z,20.2423
2023-05-19T11:55:52.024Z,20.2440
2023-05-19T11:56:53.258Z,20.2479
2023-05-19T11:58:02.768Z,20.2431
2023-05-19T11:58:56.647Z,20.2518
2023-05-19T11:59:58.376Z,20.2489
2023-05-19T12:01:00.121Z,20.2725
2023-05-19T12:02:01.808Z,20.2579
2023-05-19T12:03:03.674Z,20.2450
2023-05-19T12:04:05.413Z,20.2501
2023-05-19T12:05:07.057Z,20.2567
2023-05-19T12:06:08.755Z,20.2608
2023-05-19T12:07:10.470Z,20.2746
2023-05-19T12:08:12.277Z,20.2540
2023-05-19T12:09:14.028Z,20.2709
2023-05-19T12:10:15.642Z,20.2848
2023-05-19T12:11:18.216Z,20.2590
2023-05-19T12:14:16.080Z,21.5696
2023-05-19T12:15:17.704Z,20.7024
2023-05-19T12:16:19.455Z,20.3514
2023-05-19T12:17:21.271Z,20.2633
2023-05-19T12:18:22.917Z,20.2397
2023-05-19T12:19:24.693Z,20.2458
2023-05-19T12:20:26.372Z,20.2579
2023-05-19T12:21:34.011Z,20.2651
2023-05-19T12:24:31.372Z,21.5723
2023-05-19T12:25:33.186Z,20.7152
2023-05-19T12:26:34.706Z,20.3810
2023-05-19T12:27:36.513Z,20.2785
2023-05-19T12:28:38.167Z,20.2319
2023-05-19T12:29:39.884Z,20.2220
2023-05-19T12:30:41.638Z,20.2473
2023-05-19T12:31:43.431Z,20.2520
2023-05-19T12:32:45.225Z,20.2530
2023-05-19T12:33:46.830Z,20.2456